createdAt,value
2018-01-26T00:01:01.412Z,15.06
2018-01-26T00:03:30.185Z,15.18
2018-01-26T00:05:59.381Z,15.20
2018-01-26T00:08:29.072Z,15.08
2018-01-26T00:11:00.128Z,14.81
2018-01-26T00:13:30.863Z,14.88
2018-01-26T00:16:00.139Z,14.87
2018-01-26T00:18:29.539Z,14.87
2018-01-26T00:20:58.333Z,15.04
2018-01-26T00:23:27.752Z,15.12
2018-01-26T00:25:56.890Z,15.14
2018-01-26T00:28:27.164Z,15.11
2018-01-26T00:30:56.979Z,14.99
2018-01-26T00:33:26.040Z,15.12
2018-01-26T00:35:54.950Z,15.05
2018-01-26T00:38:24.175Z,15.07
2018-01-26T00:40:54.005Z,15.10
2018-01-26T00:43:24.040Z,15.12
2018-01-26T00:45:52.649Z,15.14
2018-01-26T00:48:22.472Z,15.17
2018-01-26T00:50:51.680Z,15.06
2018-01-26T00:53:20.787Z,15.11
2018-01-26T00:55:49.791Z,14.99
2018-01-26T00:58:19.749Z,14.91
2018-01-26T01:00:49.389Z,14.95
2018-01-26T01:03:18.139Z,14.85
2018-01-26T01:05:47.083Z,14.82
2018-01-26T01:08:16.240Z,14.76
2018-01-26T01:10:45.359Z,14.76
2018-01-26T01:13:14.381Z,14.75
2018-01-26T01:15:43.836Z,14.86
2018-01-26T01:18:13.640Z,14.85
2018-01-26T01:20:42.473Z,14.82
2018-01-26T01:23:11.114Z,14.87
2018-01-26T01:25:39.776Z,14.87
2018-01-26T01:28:08.745Z,14.90
2018-01-26T01:30:39.007Z,14.76
2018-01-26T01:33:08.339Z,14.79
2018-01-26T01:35:36.950Z,14.69
2018-01-26T01:38:06.289Z,14.68
2018-01-26T01:40:35.357Z,14.69
2018-01-26T01:43:04.416Z,14.72
2018-01-26T01:45:33.178Z,14.61
2018-01-26T01:48:02.021Z,14.60
2018-01-26T01:50:30.990Z,14.56
2018-01-26T01:53:01.024Z,14.71
2018-01-26T01:55:29.791Z,14.68
2018-01-26T01:57:58.254Z,14.75
2018-01-26T02:00:28.335Z,14.69
2018-01-26T02:02:57.485Z,14.60
2018-01-26T02:05:27.429Z,14.52
2018-01-26T02:07:57.057Z,14.57
2018-01-26T02:10:26.357Z,14.57
2018-01-26T02:12:56.298Z,14.64
2018-01-26T02:15:24.910Z,14.60
2018-01-26T02:17:53.843Z,14.59
2018-01-26T02:20:23.004Z,14.64
2018-01-26T02:22:52.247Z,14.74
2018-01-26T02:25:22.454Z,14.65
2018-01-26T02:27:51.142Z,14.69
2018-01-26T02:30:20.025Z,14.78
2018-01-26T02:32:48.581Z,14.80
2018-01-26T02:35:17.981Z,14.73
2018-01-26T02:37:47.733Z,14.70
2018-01-26T02:40:16.120Z,14.80
2018-01-26T02:42:45.565Z,14.84
2018-01-26T02:45:14.558Z,14.73
2018-01-26T02:47:44.457Z,14.67
2018-01-26T02:50:14.157Z,14.52
2018-01-26T02:52:43.001Z,14.30
2018-01-26T02:55:12.120Z,14.29
2018-01-26T02:57:40.545Z,14.23
2018-01-26T03:00:09.117Z,14.33
2018-01-26T03:02:37.856Z,14.51
2018-01-26T03:05:06.860Z,14.66
2018-01-26T03:07:35.679Z,14.70
2018-01-26T03:10:04.311Z,14.68
2018-01-26T03:12:33.329Z,14.66
2018-01-26T03:15:02.028Z,14.71
2018-01-26T03:17:30.947Z,14.85
2018-01-26T03:20:00.435Z,14.88
2018-01-26T03:22:29.468Z,14.80
2018-01-26T03:24:58.258Z,14.68
2018-01-26T03:27:26.827Z,14.59
2018-01-26T03:29:55.770Z,14.68
2018-01-26T03:32:25.753Z,14.72
2018-01-26T03:34:54.202Z,14.56
2018-01-26T03:37:23.049Z,14.75
2018-01-26T03:39:52.240Z,14.52
2018-01-26T03:42:22.081Z,14.70
2018-01-26T03:44:52.209Z,14.73
2018-01-26T03:47:21.273Z,14.77
2018-01-26T03:49:50.127Z,14.79
2018-01-26T03:52:19.867Z,14.68
2018-01-26T03:54:48.314Z,14.48
2018-01-26T03:57:18.164Z,14.77
2018-01-26T03:59:46.695Z,14.59
2018-01-26T04:02:15.531Z,14.59
2018-01-26T04:04:44.029Z,14.79
2018-01-26T04:07:13.510Z,14.84
2018-01-26T04:09:44.001Z,14.80
2018-01-26T04:12:12.658Z,14.63
2018-01-26T04:14:43.096Z,14.16
2018-01-26T04:17:12.262Z,14.30
2018-01-26T04:19:41.070Z,13.95
2018-01-26T04:22:11.028Z,13.72
2018-01-26T04:24:39.854Z,13.98
2018-01-26T04:27:08.641Z,13.97
2018-01-26T04:29:37.320Z,14.03
2018-01-26T04:32:05.818Z,13.74
2018-01-26T04:34:35.664Z,13.56
2018-01-26T04:37:04.674Z,13.55
2018-01-26T04:39:33.484Z,13.49
2018-01-26T04:42:01.998Z,13.62
2018-01-26T04:44:31.694Z,13.83
2018-01-26T04:47:00.446Z,13.86
2018-01-26T04:49:28.813Z,13.64
2018-01-26T04:51:58.666Z,13.40
2018-01-26T04:54:27.468Z,13.39
2018-01-26T04:56:57.112Z,13.36
2018-01-26T04:59:26.054Z,13.28
2018-01-26T05:01:55.620Z,13.18
2018-01-26T05:04:25.514Z,13.30
2018-01-26T05:06:54.458Z,12.98
2018-01-26T05:09:23.098Z,12.65
2018-01-26T05:11:51.624Z,12.95
2018-01-26T05:14:21.292Z,13.19
2018-01-26T05:16:50.505Z,13.24
2018-01-26T05:19:18.873Z,13.34
2018-01-26T05:21:47.463Z,13.04
2018-01-26T05:24:16.223Z,12.74
2018-01-26T05:26:45.279Z,12.79
2018-01-26T05:29:14.181Z,12.77
2018-01-26T05:31:43.238Z,12.80
2018-01-26T05:34:12.667Z,12.79
2018-01-26T05:36:41.358Z,12.92
2018-01-26T05:39:10.172Z,12.86
2018-01-26T05:41:40.348Z,12.75
2018-01-26T05:44:08.723Z,12.53
2018-01-26T05:46:38.063Z,12.75
2018-01-26T05:49:07.283Z,12.68
2018-01-26T05:51:36.464Z,12.44
2018-01-26T05:54:05.868Z,12.60
2018-01-26T05:56:35.187Z,12.94
2018-01-26T05:59:04.456Z,12.63
2018-01-26T06:01:32.845Z,12.89
2018-01-26T06:04:01.465Z,12.83
2018-01-26T06:06:30.788Z,12.93
2018-01-26T06:08:59.230Z,12.99
2018-01-26T06:11:29.327Z,13.07
2018-01-26T06:13:58.097Z,12.87
2018-01-26T06:16:26.906Z,12.76
2018-01-26T06:18:55.562Z,12.60
2018-01-26T06:21:24.685Z,12.82
2018-01-26T06:23:54.326Z,12.75
2018-01-26T06:26:23.333Z,12.55
2018-01-26T06:28:51.911Z,12.52
2018-01-26T06:31:21.243Z,12.31
2018-01-26T06:33:50.803Z,12.09
2018-01-26T06:36:20.124Z,12.06
2018-01-26T06:38:48.597Z,11.88
2018-01-26T06:41:17.842Z,11.73
2018-01-26T06:43:46.643Z,11.72
2018-01-26T06:46:16.114Z,11.69
2018-01-26T06:48:44.750Z,12.09
2018-01-26T06:51:13.611Z,11.95
2018-01-26T06:53:43.272Z,11.97
2018-01-26T06:56:12.056Z,11.98
2018-01-26T06:58:40.882Z,12.29
2018-01-26T07:01:09.630Z,12.00
2018-01-26T07:03:39.435Z,12.16
2018-01-26T07:06:08.722Z,12.23
2018-01-26T07:08:37.190Z,12.21
2018-01-26T07:11:06.010Z,12.11
2018-01-26T07:13:34.977Z,12.32
2018-01-26T07:16:04.730Z,12.16
2018-01-26T07:18:34.315Z,12.38
2018-01-26T07:21:03.249Z,12.45
2018-01-26T07:23:31.841Z,12.33
2018-01-26T07:26:01.242Z,12.29
2018-01-26T07:28:30.642Z,12.50
2018-01-26T07:31:00.742Z,12.16
2018-01-26T07:33:29.220Z,12.37
2018-01-26T07:35:57.834Z,12.34
2018-01-26T07:38:26.536Z,12.29
2018-01-26T07:40:55.998Z,12.56
2018-01-26T07:43:24.835Z,12.65
2018-01-26T07:45:53.202Z,12.38
2018-01-26T07:48:21.695Z,12.25
2018-01-26T07:50:50.321Z,12.23
2018-01-26T07:53:20.687Z,12.14
2018-01-26T07:55:49.584Z,12.09
2018-01-26T07:58:17.982Z,12.02
2018-01-26T08:00:46.354Z,12.03
2018-01-26T08:03:14.880Z,12.12
2018-01-26T08:05:43.608Z,11.80
2018-01-26T08:08:12.183Z,12.07
2018-01-26T08:10:41.109Z,11.92
2018-01-26T08:13:10.628Z,12.03
2018-01-26T08:15:39.520Z,11.99
2018-01-26T08:18:08.683Z,12.10
2018-01-26T08:20:37.344Z,12.12
2018-01-26T08:23:06.159Z,12.45
2018-01-26T08:25:36.202Z,12.56
2018-01-26T08:28:05.111Z,12.59
2018-01-26T08:30:34.671Z,12.75
2018-01-26T08:33:03.825Z,12.45
2018-01-26T08:35:32.684Z,12.59
2018-01-26T08:38:02.457Z,12.65
2018-01-26T08:40:31.356Z,12.64
2018-01-26T08:43:00.966Z,12.77
2018-01-26T08:45:33.283Z,12.40
2018-01-26T08:48:02.865Z,12.51
2018-01-26T08:50:31.735Z,12.21
2018-01-26T08:53:00.115Z,12.33
2018-01-26T08:55:28.823Z,12.51
2018-01-26T08:57:57.359Z,12.63
2018-01-26T09:00:25.708Z,12.71
2018-01-26T09:02:54.236Z,12.60
2018-01-26T09:05:22.711Z,12.59
2018-01-26T09:07:51.094Z,12.57
2018-01-26T09:10:19.469Z,12.53
2018-01-26T09:12:47.853Z,12.36
2018-01-26T09:15:16.332Z,12.43
2018-01-26T09:17:44.704Z,12.48
2018-01-26T09:20:13.081Z,12.56
2018-01-26T09:22:41.448Z,12.80
2018-01-26T09:25:09.813Z,12.78
2018-01-26T09:27:38.172Z,12.69
2018-01-26T09:30:06.997Z,12.69
2018-01-26T09:32:35.437Z,12.82
2018-01-26T09:35:03.765Z,13.02
2018-01-26T09:37:32.157Z,13.00
2018-01-26T09:40:00.524Z,13.08
2018-01-26T09:42:28.902Z,12.96
2018-01-26T09:44:57.265Z,13.25
2018-01-26T09:47:25.647Z,13.37
2018-01-26T09:49:54.046Z,13.41
2018-01-26T09:52:22.412Z,13.45
2018-01-26T09:54:50.825Z,13.47
2018-01-26T09:57:19.177Z,13.26
2018-01-26T09:59:47.556Z,13.36
2018-01-26T10:02:15.920Z,13.53
2018-01-26T10:04:44.290Z,13.33
2018-01-26T10:07:12.704Z,13.46
2018-01-26T10:09:41.175Z,13.49
2018-01-26T10:12:09.816Z,13.63
2018-01-26T10:14:39.283Z,13.48
2018-01-26T10:17:08.200Z,13.69
2018-01-26T10:19:36.921Z,13.87
2018-01-26T10:22:05.984Z,13.82
2018-01-26T10:24:35.126Z,13.82
2018-01-26T10:27:03.845Z,13.90
2018-01-26T10:29:33.094Z,13.92
2018-01-26T10:32:03.203Z,13.73
2018-01-26T10:34:31.901Z,13.82
2018-01-26T10:37:00.505Z,13.73
2018-01-26T10:39:29.197Z,13.71
2018-01-26T10:41:57.679Z,13.83
2018-01-26T10:44:26.197Z,13.82
2018-01-26T10:49:29.887Z,13.86
2018-01-26T10:51:58.639Z,13.95
2018-01-26T10:54:27.328Z,13.96
2018-01-26T10:56:55.775Z,13.93
2018-01-26T10:59:24.637Z,14.03
2018-01-26T11:01:53.196Z,14.02
2018-01-26T11:04:21.590Z,13.99
2018-01-26T11:06:50.089Z,13.85
2018-01-26T11:09:18.942Z,13.82
2018-01-26T11:11:47.378Z,14.00
2018-01-26T11:14:15.942Z,14.07
2018-01-26T11:16:44.513Z,13.98
2018-01-26T11:19:12.894Z,14.15
2018-01-26T11:21:41.438Z,14.26
2018-01-26T11:24:09.908Z,14.21
2018-01-26T11:26:38.326Z,14.06
2018-01-26T11:29:06.823Z,14.01
2018-01-26T11:31:35.311Z,14.05
2018-01-26T11:34:03.822Z,14.04
2018-01-26T11:36:32.216Z,14.02
2018-01-26T11:39:00.651Z,14.04
2018-01-26T11:41:29.800Z,14.20
2018-01-26T11:43:58.277Z,14.42
2018-01-26T11:46:26.713Z,14.17
2018-01-26T11:48:55.612Z,14.25
2018-01-26T11:51:24.646Z,14.22
2018-01-26T11:53:53.044Z,13.98
2018-01-26T11:56:22.003Z,14.02
2018-01-26T11:58:50.466Z,13.56
2018-01-26T12:01:18.923Z,14.04
2018-01-26T12:03:47.332Z,14.02
2018-01-26T12:06:16.174Z,13.70
2018-01-26T12:08:44.572Z,14.01
2018-01-26T12:11:12.957Z,14.17
2018-01-26T12:13:41.359Z,14.17
2018-01-26T12:16:10.141Z,14.15
2018-01-26T12:18:38.919Z,14.21
2018-01-26T12:21:07.284Z,14.55
2018-01-26T12:23:35.651Z,14.88
2018-01-26T12:26:04.010Z,14.79
2018-01-26T12:28:32.373Z,15.01
2018-01-26T12:31:00.748Z,15.06
2018-01-26T12:33:29.119Z,15.05
2018-01-26T12:35:57.486Z,14.90
2018-01-26T12:38:26.255Z,15.19
2018-01-26T12:40:54.707Z,15.02
2018-01-26T12:43:23.108Z,14.82
2018-01-26T12:45:51.583Z,14.74
2018-01-26T12:48:19.943Z,14.57
2018-01-26T12:50:48.308Z,14.37
2018-01-26T12:53:16.680Z,14.21
2018-01-26T12:55:45.145Z,14.35
2018-01-26T12:58:13.504Z,14.37
2018-01-26T13:00:42.350Z,14.40
2018-01-26T13:03:10.763Z,14.37
2018-01-26T13:05:39.239Z,14.42
2018-01-26T13:08:07.600Z,14.36
2018-01-26T13:10:36.009Z,14.28
2018-01-26T13:13:04.869Z,14.29
2018-01-26T13:15:33.238Z,14.35
2018-01-26T13:18:01.629Z,14.43
2018-01-26T13:20:30.407Z,14.45
2018-01-26T13:22:58.801Z,14.44
2018-01-26T13:25:27.255Z,14.45
2018-01-26T13:27:55.719Z,14.45
2018-01-26T13:30:24.081Z,14.47
2018-01-26T13:32:52.444Z,14.17
2018-01-26T13:35:21.204Z,14.28
2018-01-26T13:37:49.565Z,14.28
2018-01-26T13:40:17.928Z,14.14
2018-01-26T13:42:46.278Z,14.25
2018-01-26T13:45:14.654Z,14.17
2018-01-26T13:47:43.409Z,14.26
2018-01-26T13:50:11.770Z,13.90
2018-01-26T13:52:40.157Z,13.66
2018-01-26T13:55:08.584Z,13.84
2018-01-26T13:57:37.336Z,14.13
2018-01-26T14:00:05.692Z,14.13
2018-01-26T14:02:34.111Z,14.14
2018-01-26T14:05:02.874Z,14.11
2018-01-26T14:07:31.331Z,13.93
2018-01-26T14:09:59.683Z,14.23
2018-01-26T14:12:28.099Z,14.33
2018-01-26T14:14:56.461Z,14.26
2018-01-26T14:17:25.035Z,14.18
2018-01-26T14:19:53.435Z,14.36
2018-01-26T14:22:21.789Z,14.00
2018-01-26T14:24:50.192Z,14.06
2018-01-26T14:27:18.681Z,14.41
2018-01-26T14:29:47.068Z,14.69
2018-01-26T14:32:15.442Z,14.40
2018-01-26T14:34:43.815Z,14.66
2018-01-26T14:37:12.205Z,14.79
2018-01-26T14:39:40.555Z,14.81
2018-01-26T14:42:08.921Z,14.79
2018-01-26T14:44:37.331Z,14.84
2018-01-26T14:47:05.708Z,14.99
2018-01-26T14:49:34.084Z,14.80
2018-01-26T14:52:02.448Z,14.96
2018-01-26T14:54:30.844Z,14.86
2018-01-26T14:56:59.213Z,14.87
2018-01-26T14:59:27.601Z,14.85
2018-01-26T15:01:55.957Z,14.69
2018-01-26T15:04:24.329Z,14.57
2018-01-26T15:06:52.736Z,14.63
2018-01-26T15:09:21.132Z,14.64
2018-01-26T15:11:49.498Z,14.53
2018-01-26T15:14:17.874Z,14.44
2018-01-26T15:16:46.262Z,14.29
2018-01-26T15:19:14.707Z,14.25
2018-01-26T15:21:43.114Z,14.21
2018-01-26T15:24:11.497Z,14.24
2018-01-26T15:26:39.877Z,14.26
2018-01-26T15:29:08.256Z,14.11
2018-01-26T15:31:36.628Z,14.03
2018-01-26T15:34:04.984Z,13.99
2018-01-26T15:36:33.339Z,13.96
2018-01-26T15:39:01.767Z,14.15
2018-01-26T15:41:30.152Z,14.16
2018-01-26T15:43:58.516Z,14.21
2018-01-26T15:46:26.885Z,14.57
2018-01-26T15:48:55.252Z,14.59
2018-01-26T15:51:23.651Z,14.76
2018-01-26T15:53:52.032Z,14.69
2018-01-26T15:56:20.404Z,14.69
2018-01-26T15:58:48.892Z,14.67
2018-01-26T16:01:17.252Z,14.67
2018-01-26T16:03:45.625Z,14.64
2018-01-26T16:06:14.056Z,14.64
2018-01-26T16:08:42.416Z,14.75
2018-01-26T16:11:10.892Z,14.74
2018-01-26T16:13:39.256Z,14.77
2018-01-26T16:16:07.628Z,14.73
2018-01-26T16:18:36.039Z,14.79
2018-01-26T16:21:04.480Z,14.59
2018-01-26T16:23:33.207Z,14.69
2018-01-26T16:26:01.589Z,14.65
2018-01-26T16:28:30.060Z,14.60
2018-01-26T16:30:58.411Z,14.49
2018-01-26T16:33:26.793Z,14.48
2018-01-26T16:35:55.203Z,14.62
2018-01-26T16:38:23.797Z,14.55
2018-01-26T16:40:52.280Z,14.52
2018-01-26T16:43:20.679Z,14.43
2018-01-26T16:45:49.052Z,14.37
2018-01-26T16:48:17.428Z,14.48
2018-01-26T16:50:45.881Z,14.22
2018-01-26T16:53:14.231Z,14.33
2018-01-26T16:55:42.606Z,14.38
2018-01-26T16:58:10.972Z,14.37
2018-01-26T17:00:39.340Z,14.41
2018-01-26T17:03:08.289Z,14.31
2018-01-26T17:05:36.664Z,14.30
2018-01-26T17:08:05.157Z,14.31
2018-01-26T17:10:33.637Z,14.46
2018-01-26T17:13:02.016Z,14.49
2018-01-26T17:15:30.379Z,14.44
2018-01-26T17:17:58.747Z,14.48
2018-01-26T17:20:27.123Z,14.53
2018-01-26T17:22:55.494Z,14.60
2018-01-26T17:25:23.904Z,14.58
2018-01-26T17:27:52.289Z,14.57
2018-01-26T17:30:20.664Z,14.36
2018-01-26T17:32:49.052Z,14.43
2018-01-26T17:35:17.414Z,14.22
2018-01-26T17:37:45.788Z,14.20
2018-01-26T17:40:14.144Z,14.29
2018-01-26T17:42:42.557Z,14.50
2018-01-26T17:45:10.933Z,14.41
2018-01-26T17:47:39.309Z,14.60
2018-01-26T17:50:07.786Z,14.50
2018-01-26T17:52:36.163Z,14.70
2018-01-26T17:55:04.519Z,14.64
2018-01-26T17:57:33.004Z,14.75
2018-01-26T18:00:01.359Z,14.64
2018-01-26T18:02:29.756Z,14.57
2018-01-26T18:04:58.144Z,14.61
2018-01-26T18:07:26.495Z,14.71
2018-01-26T18:09:54.996Z,14.65
2018-01-26T18:12:23.356Z,14.73
2018-01-26T18:14:51.779Z,14.87
2018-01-26T18:17:20.156Z,14.92
2018-01-26T18:19:48.519Z,14.83
2018-01-26T18:22:16.898Z,14.75
2018-01-26T18:24:45.300Z,14.76
2018-01-26T18:27:13.783Z,14.68
2018-01-26T18:29:42.180Z,14.64
2018-01-26T18:32:10.556Z,14.60
2018-01-26T18:34:38.936Z,14.74
2018-01-26T18:37:07.303Z,14.68
2018-01-26T18:39:35.678Z,14.58
2018-01-26T18:42:04.059Z,14.58
2018-01-26T18:44:32.436Z,14.61
2018-01-26T18:47:00.807Z,14.60
2018-01-26T18:49:29.194Z,14.30
2018-01-26T18:51:57.551Z,14.30
2018-01-26T18:54:25.955Z,14.23
2018-01-26T18:56:54.335Z,14.24
2018-01-26T18:59:22.795Z,14.33
2018-01-26T19:01:51.184Z,14.35
2018-01-26T19:04:19.537Z,14.46
2018-01-26T19:06:47.956Z,14.52
2018-01-26T19:09:16.426Z,14.71
2018-01-26T19:11:44.820Z,14.76
2018-01-26T19:14:13.209Z,14.80
2018-01-26T19:16:41.612Z,14.90
2018-01-26T19:19:10.399Z,14.89
2018-01-26T19:21:39.156Z,14.97
2018-01-26T19:24:07.526Z,14.95
2018-01-26T19:26:35.894Z,14.60
2018-01-26T19:29:04.273Z,14.61
2018-01-26T19:31:32.776Z,14.48
2018-01-26T19:34:01.246Z,14.64
2018-01-26T19:36:29.602Z,14.63
2018-01-26T19:38:58.057Z,14.75
2018-01-26T19:41:26.435Z,14.73
2018-01-26T19:43:54.808Z,14.18
2018-01-26T19:46:23.205Z,14.07
2018-01-26T19:48:51.569Z,14.22
2018-01-26T19:51:19.958Z,14.39
2018-01-26T19:53:48.344Z,14.55
2018-01-26T19:56:16.781Z,14.41
2018-01-26T19:58:45.118Z,14.51
2018-01-26T20:01:13.517Z,14.43
2018-01-26T20:07:20.360Z,14.31
2018-01-26T20:09:48.840Z,14.07
2018-01-26T20:12:17.221Z,14.39
2018-01-26T20:14:45.606Z,14.38
2018-01-26T20:17:14.011Z,14.20
2018-01-26T20:19:42.523Z,14.39
2018-01-26T20:22:11.292Z,14.40
2018-01-26T20:24:39.676Z,14.44
2018-01-26T20:27:08.056Z,14.26
2018-01-26T20:29:36.407Z,14.24
2018-01-26T20:32:04.773Z,14.30
2018-01-26T20:34:33.138Z,13.86
2018-01-26T20:37:01.973Z,13.90
2018-01-26T20:39:30.351Z,14.09
2018-01-26T20:41:58.735Z,14.05
2018-01-26T20:44:27.204Z,14.01
2018-01-26T20:46:55.664Z,13.99
2018-01-26T20:49:24.036Z,14.11
2018-01-26T20:51:52.395Z,14.30
2018-01-26T20:54:21.247Z,14.49
2018-01-26T20:56:49.600Z,14.63
2018-01-26T20:59:17.965Z,14.50
2018-01-26T21:01:46.574Z,14.35
2018-01-26T21:04:15.020Z,14.31
2018-01-26T21:06:43.540Z,14.36
2018-01-26T21:09:11.951Z,14.16
2018-01-26T21:11:40.556Z,14.29
2018-01-26T21:14:09.376Z,14.48
2018-01-26T21:16:38.535Z,14.49
2018-01-26T21:19:07.365Z,14.45
2018-01-26T21:21:36.403Z,14.49
2018-01-26T21:24:04.907Z,14.67
2018-01-26T21:26:33.762Z,14.50
2018-01-26T21:29:02.171Z,14.39
2018-01-26T21:31:31.299Z,14.57
2018-01-26T21:34:00.145Z,14.66
2018-01-26T21:36:28.618Z,14.61
2018-01-26T21:38:58.509Z,14.63
2018-01-26T21:41:27.732Z,14.68
2018-01-26T21:43:56.530Z,14.20
2018-01-26T21:46:25.184Z,14.33
2018-01-26T21:48:53.990Z,14.63
2018-01-26T21:51:22.876Z,14.56
2018-01-26T21:53:51.445Z,14.78
2018-01-26T21:56:19.815Z,14.57
2018-01-26T21:58:49.582Z,14.73
2018-01-26T22:01:18.491Z,14.81
2018-01-26T22:03:47.106Z,14.18
2018-01-26T22:06:21.526Z,14.35
2018-01-26T22:08:49.915Z,14.28
2018-01-26T22:11:19.751Z,14.37
2018-01-26T22:13:48.445Z,14.35
2018-01-26T22:16:17.236Z,14.40
2018-01-26T22:18:46.532Z,14.36
2018-01-26T22:21:15.157Z,14.35
2018-01-26T22:23:44.559Z,14.55
2018-01-26T22:26:13.509Z,14.27
2018-01-26T22:28:42.386Z,14.19
2018-01-26T22:31:11.527Z,14.19
2018-01-26T22:33:40.256Z,14.22
2018-01-26T22:36:09.056Z,13.99
2018-01-26T22:38:37.505Z,14.06
2018-01-26T22:41:05.889Z,14.33
2018-01-26T22:43:34.685Z,14.26
2018-01-26T22:46:03.194Z,14.47
2018-01-26T22:48:31.842Z,14.48
2018-01-26T22:51:00.997Z,14.46
2018-01-26T22:53:31.203Z,14.40
2018-01-26T22:56:00.415Z,14.18
2018-01-26T22:58:29.432Z,14.21
2018-01-26T23:00:59.031Z,13.92
2018-01-26T23:03:28.222Z,13.98
2018-01-26T23:05:57.582Z,13.70
2018-01-26T23:08:27.029Z,13.45
2018-01-26T23:10:55.911Z,13.88
2018-01-26T23:13:25.052Z,13.40
2018-01-26T23:15:53.991Z,13.64
2018-01-26T23:18:22.941Z,13.83
2018-01-26T23:20:51.719Z,13.64
2018-01-26T23:23:20.130Z,14.07
2018-01-26T23:25:49.540Z,13.94
2018-01-26T23:28:18.209Z,14.07
2018-01-26T23:30:47.020Z,14.30
2018-01-26T23:33:15.811Z,14.17
2018-01-26T23:35:45.195Z,14.44
2018-01-26T23:38:14.616Z,14.57
2018-01-26T23:40:43.960Z,14.51
2018-01-26T23:43:13.204Z,14.60
2018-01-26T23:45:42.127Z,14.66
2018-01-26T23:48:11.726Z,14.48
2018-01-26T23:50:43.474Z,14.53
2018-01-26T23:53:12.233Z,14.50
2018-01-26T23:55:41.161Z,14.52
2018-01-26T23:58:11.125Z,14.62
